sensor_id;sensor_type;location;lat;lon;timestamp;temperature;humidity
22220;DHT22;11279;48.364;10.904;2022-07-29T00:00:33;19.00;99.90
22220;DHT22;11279;48.364;10.904;2022-07-29T00:01:34;19.00;99.90
22220;DHT22;11279;48.364;10.904;2022-07-29T00:02:35;19.00;99.90
22220;DHT22;11279;48.364;10.904;2022-07-29T00:03:36;19.00;99.90
22220;DHT22;11279;48.364;10.904;2022-07-29T00:04:37;19.00;99.90
22220;DHT22;11279;48.364;10.904;2022-07-29T00:05:41;19.00;99.90
22220;DHT22;11279;48.364;10.904;2022-07-29T00:06:42;19.00;99.90
22220;DHT22;11279;48.364;10.904;2022-07-29T00:07:43;19.10;99.90
22220;DHT22;11279;48.364;10.904;2022-07-29T00:08:44;19.10;99.90
22220;DHT22;11279;48.364;10.904;2022-07-29T00:09:44;19.00;99.90
22220;DHT22;11279;48.364;10.904;2022-07-29T00:10:45;19.00;99.90
22220;DHT22;11279;48.364;10.904;2022-07-29T00:11:46;19.00;99.90
22220;DHT22;11279;48.364;10.904;2022-07-29T00:12:47;19.10;99.90
22220;DHT22;11279;48.364;10.904;2022-07-29T00:13:48;19.10;99.90
22220;DHT22;11279;48.364;10.904;2022-07-29T00:14:48;19.00;99.90
22220;DHT22;11279;48.364;10.904;2022-07-29T00:15:49;19.00;99.90
22220;DHT22;11279;48.364;10.904;2022-07-29T00:16:50;19.10;99.90
22220;DHT22;11279;48.364;10.904;2022-07-29T00:17:50;19.10;99.90
22220;DHT22;11279;48.364;10.904;2022-07-29T00:18:51;19.10;99.90
22220;DHT22;11279;48.364;10.904;2022-07-29T00:19:52;19.00;99.90
22220;DHT22;11279;48.364;10.904;2022-07-29T00:20:53;19.00;99.90
22220;DHT22;11279;48.364;10.904;2022-07-29T00:21:53;19.00;99.90
22220;DHT22;11279;48.364;10.904;2022-07-29T00:22:54;19.00;99.90
22220;DHT22;11279;48.364;10.904;2022-07-29T00:23:55;19.00;99.90
22220;DHT22;11279;48.364;10.904;2022-07-29T00:24:55;19.00;99.90
22220;DHT22;11279;48.364;10.904;2022-07-29T00:25:56;19.00;99.90
22220;DHT22;11279;48.364;10.904;2022-07-29T00:26:57;18.90;99.90
22220;DHT22;11279;48.364;10.904;2022-07-29T00:27:57;18.90;99.90
22220;DHT22;11279;48.364;10.904;2022-07-29T00:28:59;18.90;99.90
22220;DHT22;11279;48.364;10.904;2022-07-29T00:30:00;18.90;99.90
22220;DHT22;11279;48.364;10.904;2022-07-29T00:31:00;19.00;99.90
22220;DHT22;11279;48.364;10.904;2022-07-29T00:32:02;19.00;99.90
22220;DHT22;11279;48.364;10.904;2022-07-29T00:33:02;19.00;99.90
22220;DHT22;11279;48.364;10.904;2022-07-29T00:34:03;19.00;99.90
22220;DHT22;11279;48.364;10.904;2022-07-29T00:35:04;19.00;99.90
22220;DHT22;11279;48.364;10.904;2022-07-29T00:36:24;19.00;99.90
22220;DHT22;11279;48.364;10.904;2022-07-29T00:37:24;19.00;99.90
22220;DHT22;11279;48.364;10.904;2022-07-29T00:38:25;19.00;99.90
22220;DHT22;11279;48.364;10.904;2022-07-29T00:39:26;19.00;99.90
22220;DHT22;11279;48.364;10.904;2022-07-29T00:40:26;19.00;99.90
22220;DHT22;11279;48.364;10.904;2022-07-29T00:41:27;19.00;99.90
22220;DHT22;11279;48.364;10.904;2022-07-29T00:42:28;18.90;99.90
22220;DHT22;11279;48.364;10.904;2022-07-29T00:43:28;18.80;99.90
22220;DHT22;11279;48.364;10.904;2022-07-29T00:44:29;18.90;99.90
22220;DHT22;11279;48.364;10.904;2022-07-29T00:45:30;18.90;99.90
22220;DHT22;11279;48.364;10.904;2022-07-29T00:46:30;18.90;99.90
22220;DHT22;11279;48.364;10.904;2022-07-29T00:47:31;18.90;99.90
22220;DHT22;11279;48.364;10.904;2022-07-29T00:48:32;18.90;99.90
22220;DHT22;11279;48.364;10.904;2022-07-29T00:49:34;18.90;99.90
22220;DHT22;11279;48.364;10.904;2022-07-29T00:50:36;18.80;99.90
22220;DHT22;11279;48.364;10.904;2022-07-29T00:51:37;18.80;99.90
22220;DHT22;11279;48.364;10.904;2022-07-29T00:52:40;18.80;99.90
22220;DHT22;11279;48.364;10.904;2022-07-29T00:53:41;18.70;99.90
22220;DHT22;11279;48.364;10.904;2022-07-29T00:54:42;18.70;99.90
22220;DHT22;11279;48.364;10.904;2022-07-29T00:55:43;18.70;99.90
22220;DHT22;11279;48.364;10.904;2022-07-29T00:56:44;18.70;99.90
22220;DHT22;11279;48.364;10.904;2022-07-29T00:57:45;18.70;99.90
22220;DHT22;11279;48.364;10.904;2022-07-29T00:58:46;18.60;99.90
22220;DHT22;11279;48.364;10.904;2022-07-29T00:59:48;18.60;99.90
22220;DHT22;11279;48.364;10.904;2022-07-29T01:00:49;18.60;99.90
22220;DHT22;11279;48.364;10.904;2022-07-29T01:01:50;18.60;99.90
22220;DHT22;11279;48.364;10.904;2022-07-29T01:02:50;18.60;99.90
22220;DHT22;11279;48.364;10.904;2022-07-29T01:03:51;18.60;99.90
22220;DHT22;11279;48.364;10.904;2022-07-29T01:04:53;18.60;99.90
22220;DHT22;11279;48.364;10.904;2022-07-29T01:05:54;18.70;99.90
22220;DHT22;11279;48.364;10.904;2022-07-29T01:06:55;18.60;99.90
22220;DHT22;11279;48.364;10.904;2022-07-29T01:07:57;18.60;99.90
22220;DHT22;11279;48.364;10.904;2022-07-29T01:08:58;18.60;99.90
22220;DHT22;11279;48.364;10.904;2022-07-29T01:10:02;18.70;99.90
22220;DHT22;11279;48.364;10.904;2022-07-29T01:11:03;18.70;99.90
22220;DHT22;11279;48.364;10.904;2022-07-29T01:12:05;18.70;99.90
22220;DHT22;11279;48.364;10.904;2022-07-29T01:13:06;18.70;99.90
22220;DHT22;11279;48.364;10.904;2022-07-29T01:14:08;18.70;99.90
22220;DHT22;11279;48.364;10.904;2022-07-29T01:15:10;18.80;99.90
22220;DHT22;11279;48.364;10.904;2022-07-29T01:16:24;18.80;99.90
22220;DHT22;11279;48.364;10.904;2022-07-29T01:17:35;18.80;99.90
22220;DHT22;11279;48.364;10.904;2022-07-29T01:18:45;18.80;99.90
22220;DHT22;11279;48.364;10.904;2022-07-29T01:21:43;18.80;99.90
22220;DHT22;11279;48.364;10.904;2022-07-29T01:24:30;18.70;99.90
22220;DHT22;11279;48.364;10.904;2022-07-29T01:26:55;18.60;99.90
22220;DHT22;11279;48.364;10.904;2022-07-29T01:29:22;18.60;99.90
22220;DHT22;11279;48.364;10.904;2022-07-29T01:30:25;18.60;99.90
22220;DHT22;11279;48.364;10.904;2022-07-29T01:31:43;18.60;99.90
22220;DHT22;11279;48.364;10.904;2022-07-29T01:32:47;18.60;99.90
22220;DHT22;11279;48.364;10.904;2022-07-29T01:33:55;18.60;99.90
22220;DHT22;11279;48.364;10.904;2022-07-29T01:35:05;18.60;99.90
22220;DHT22;11279;48.364;10.904;2022-07-29T01:36:10;18.60;99.90
22220;DHT22;11279;48.364;10.904;2022-07-29T01:37:26;18.60;99.90
22220;DHT22;11279;48.364;10.904;2022-07-29T01:38:28;18.50;99.90
22220;DHT22;11279;48.364;10.904;2022-07-29T01:39:37;18.50;99.90
22220;DHT22;11279;48.364;10.904;2022-07-29T01:40:58;18.50;99.90
22220;DHT22;11279;48.364;10.904;2022-07-29T01:43:15;18.50;99.90
22220;DHT22;11279;48.364;10.904;2022-07-29T01:44:25;18.50;99.90
22220;DHT22;11279;48.364;10.904;2022-07-29T01:45:50;18.40;99.90
22220;DHT22;11279;48.364;10.904;2022-07-29T01:46:56;18.40;99.90
22220;DHT22;11279;48.364;10.904;2022-07-29T01:49:24;18.40;99.90
22220;DHT22;11279;48.364;10.904;2022-07-29T01:50:35;18.30;99.90
22220;DHT22;11279;48.364;10.904;2022-07-29T01:51:51;18.40;99.90
22220;DHT22;11279;48.364;10.904;2022-07-29T01:52:56;18.30;99.90
22220;DHT22;11279;48.364;10.904;2022-07-29T01:54:10;18.30;99.90
22220;DHT22;11279;48.364;10.904;2022-07-29T01:55:16;18.30;99.90
22220;DHT22;11279;48.364;10.904;2022-07-29T01:56:20;18.30;99.90
22220;DHT22;11279;48.364;10.904;2022-07-29T01:57:26;18.30;99.90
22220;DHT22;11279;48.364;10.904;2022-07-29T01:58:30;18.30;99.90
22220;DHT22;11279;48.364;10.904;2022-07-29T01:59:33;18.30;99.90
22220;DHT22;11279;48.364;10.904;2022-07-29T02:00:36;18.20;99.90
22220;DHT22;11279;48.364;10.904;2022-07-29T02:01:39;18.20;99.90
22220;DHT22;11279;48.364;10.904;2022-07-29T02:02:42;18.10;99.90
22220;DHT22;11279;48.364;10.904;2022-07-29T02:03:45;18.10;99.90
22220;DHT22;11279;48.364;10.904;2022-07-29T02:04:47;18.10;99.90
22220;DHT22;11279;48.364;10.904;2022-07-29T02:05:50;18.10;99.90
22220;DHT22;11279;48.364;10.904;2022-07-29T02:06:54;18.10;99.90
22220;DHT22;11279;48.364;10.904;2022-07-29T02:07:56;18.00;99.90
22220;DHT22;11279;48.364;10.904;2022-07-29T02:08:58;18.10;99.90
22220;DHT22;11279;48.364;10.904;2022-07-29T02:10:02;18.10;99.90
22220;DHT22;11279;48.364;10.904;2022-07-29T02:11:04;18.00;99.90
22220;DHT22;11279;48.364;10.904;2022-07-29T02:12:06;18.10;99.90
22220;DHT22;11279;48.364;10.904;2022-07-29T02:13:09;18.00;99.90
22220;DHT22;11279;48.364;10.904;2022-07-29T02:14:10;18.10;99.90
22220;DHT22;11279;48.364;10.904;2022-07-29T02:15:13;18.10;99.90
22220;DHT22;11279;48.364;10.904;2022-07-29T02:16:15;18.10;99.90
22220;DHT22;11279;48.364;10.904;2022-07-29T02:17:23;18.10;99.90
22220;DHT22;11279;48.364;10.904;2022-07-29T02:18:27;18.10;99.90
22220;DHT22;11279;48.364;10.904;2022-07-29T02:19:30;18.00;99.90
22220;DHT22;11279;48.364;10.904;2022-07-29T02:20:32;18.00;99.90
22220;DHT22;11279;48.364;10.904;2022-07-29T02:21:35;18.00;99.90
22220;DHT22;11279;48.364;10.904;2022-07-29T02:22:38;18.00;99.90
22220;DHT22;11279;48.364;10.904;2022-07-29T02:23:39;18.00;99.90
22220;DHT22;11279;48.364;10.904;2022-07-29T02:24:41;18.00;99.90
22220;DHT22;11279;48.364;10.904;2022-07-29T02:25:42;18.00;99.90
22220;DHT22;11279;48.364;10.904;2022-07-29T02:26:44;18.00;99.90
22220;DHT22;11279;48.364;10.904;2022-07-29T02:27:46;18.00;99.90
22220;DHT22;11279;48.364;10.904;2022-07-29T02:28:50;18.00;99.90
22220;DHT22;11279;48.364;10.904;2022-07-29T02:29:52;18.00;99.90
22220;DHT22;11279;48.364;10.904;2022-07-29T02:30:55;18.10;99.90
22220;DHT22;11279;48.364;10.904;2022-07-29T02:31:57;18.00;99.90
22220;DHT22;11279;48.364;10.904;2022-07-29T02:32:59;18.00;99.90
22220;DHT22;11279;48.364;10.904;2022-07-29T02:34:03;18.00;99.90
22220;DHT22;11279;48.364;10.904;2022-07-29T02:35:06;18.00;99.90
22220;DHT22;11279;48.364;10.904;2022-07-29T02:36:08;18.10;99.90
22220;DHT22;11279;48.364;10.904;2022-07-29T02:37:11;18.00;99.90
22220;DHT22;11279;48.364;10.904;2022-07-29T02:38:14;18.00;99.90
22220;DHT22;11279;48.364;10.904;2022-07-29T02:39:34;18.00;99.90
22220;DHT22;11279;48.364;10.904;2022-07-29T02:40:37;18.00;99.90
22220;DHT22;11279;48.364;10.904;2022-07-29T02:41:46;18.00;99.90
22220;DHT22;11279;48.364;10.904;2022-07-29T02:42:47;17.90;99.90
22220;DHT22;11279;48.364;10.904;2022-07-29T02:43:52;17.90;99.90
22220;DHT22;11279;48.364;10.904;2022-07-29T02:44:54;17.90;99.90
22220;DHT22;11279;48.364;10.904;2022-07-29T02:45:56;17.80;99.90
22220;DHT22;11279;48.364;10.904;2022-07-29T02:47:14;17.80;99.90
22220;DHT22;11279;48.364;10.904;2022-07-29T02:48:16;17.80;99.90
22220;DHT22;11279;48.364;10.904;2022-07-29T02:50:31;17.80;99.90
22220;DHT22;11279;48.364;10.904;2022-07-29T02:51:46;17.70;99.90
22220;DHT22;11279;48.364;10.904;2022-07-29T02:52:52;17.80;99.90
22220;DHT22;11279;48.364;10.904;2022-07-29T02:53:55;17.80;99.90
22220;DHT22;11279;48.364;10.904;2022-07-29T02:55:01;17.70;99.90
22220;DHT22;11279;48.364;10.904;2022-07-29T02:56:11;17.80;99.90
22220;DHT22;11279;48.364;10.904;2022-07-29T02:57:23;17.80;99.90
22220;DHT22;11279;48.364;10.904;2022-07-29T02:58:32;17.70;99.90
22220;DHT22;11279;48.364;10.904;2022-07-29T02:59:34;17.80;99.90
22220;DHT22;11279;48.364;10.904;2022-07-29T03:00:37;17.80;99.90
22220;DHT22;11279;48.364;10.904;2022-07-29T03:01:42;17.80;99.90
22220;DHT22;11279;48.364;10.904;2022-07-29T03:02:45;17.70;99.90
22220;DHT22;11279;48.364;10.904;2022-07-29T03:03:47;17.70;99.90
22220;DHT22;11279;48.364;10.904;2022-07-29T03:04:50;17.70;99.90
22220;DHT22;11279;48.364;10.904;2022-07-29T03:05:55;17.70;99.90
22220;DHT22;11279;48.364;10.904;2022-07-29T03:06:58;17.70;99.90
22220;DHT22;11279;48.364;10.904;2022-07-29T03:08:04;17.70;99.90
22220;DHT22;11279;48.364;10.904;2022-07-29T03:09:10;17.70;99.90
22220;DHT22;11279;48.364;10.904;2022-07-29T03:10:11;17.70;99.90
22220;DHT22;11279;48.364;10.904;2022-07-29T03:11:13;17.70;99.90
22220;DHT22;11279;48.364;10.904;2022-07-29T03:12:15;17.70;99.90
22220;DHT22;11279;48.364;10.904;2022-07-29T03:13:16;17.70;99.90
22220;DHT22;11279;48.364;10.904;2022-07-29T03:14:19;17.80;99.90
22220;DHT22;11279;48.364;10.904;2022-07-29T03:15:20;17.80;99.90
22220;DHT22;11279;48.364;10.904;2022-07-29T03:16:21;17.80;99.90
22220;DHT22;11279;48.364;10.904;2022-07-29T03:17:24;17.80;99.90
22220;DHT22;11279;48.364;10.904;2022-07-29T03:18:25;17.80;99.90
22220;DHT22;11279;48.364;10.904;2022-07-29T03:19:26;17.70;99.90
22220;DHT22;11279;48.364;10.904;2022-07-29T03:20:27;17.70;99.90
22220;DHT22;11279;48.364;10.904;2022-07-29T03:21:28;17.70;99.90
22220;DHT22;11279;48.364;10.904;2022-07-29T03:22:29;17.70;99.90
22220;DHT22;11279;48.364;10.904;2022-07-29T03:23:30;17.70;99.90
22220;DHT22;11279;48.364;10.904;2022-07-29T03:24:34;17.70;99.90
22220;DHT22;11279;48.364;10.904;2022-07-29T03:25:35;17.70;99.90
22220;DHT22;11279;48.364;10.904;2022-07-29T03:26:36;17.70;99.90
22220;DHT22;11279;48.364;10.904;2022-07-29T03:27:36;17.70;99.90
22220;DHT22;11279;48.364;10.904;2022-07-29T03:28:37;17.70;99.90
22220;DHT22;11279;48.364;10.904;2022-07-29T03:29:38;17.60;99.90
22220;DHT22;11279;48.364;10.904;2022-07-29T03:30:38;17.60;99.90
22220;DHT22;11279;48.364;10.904;2022-07-29T03:31:39;17.60;99.90
22220;DHT22;11279;48.364;10.904;2022-07-29T03:32:40;17.50;99.90
22220;DHT22;11279;48.364;10.904;2022-07-29T03:33:41;17.60;99.90
22220;DHT22;11279;48.364;10.904;2022-07-29T03:34:42;17.60;99.90
22220;DHT22;11279;48.364;10.904;2022-07-29T03:35:43;17.60;99.90
22220;DHT22;11279;48.364;10.904;2022-07-29T03:36:44;17.50;99.90
22220;DHT22;11279;48.364;10.904;2022-07-29T03:37:45;17.50;99.90
22220;DHT22;11279;48.364;10.904;2022-07-29T03:38:47;17.50;99.90
22220;DHT22;11279;48.364;10.904;2022-07-29T03:39:49;17.50;99.90
22220;DHT22;11279;48.364;10.904;2022-07-29T03:40:54;17.50;99.90
22220;DHT22;11279;48.364;10.904;2022-07-29T03:41:58;17.50;99.90
22220;DHT22;11279;48.364;10.904;2022-07-29T03:43:00;17.40;99.90
22220;DHT22;11279;48.364;10.904;2022-07-29T03:44:02;17.40;99.90
22220;DHT22;11279;48.364;10.904;2022-07-29T03:45:07;17.40;99.90
22220;DHT22;11279;48.364;10.904;2022-07-29T03:46:10;17.40;99.90
22220;DHT22;11279;48.364;10.904;2022-07-29T03:47:13;17.50;99.90
22220;DHT22;11279;48.364;10.904;2022-07-29T03:48:17;17.50;99.90
22220;DHT22;11279;48.364;10.904;2022-07-29T03:49:19;17.50;99.90
22220;DHT22;11279;48.364;10.904;2022-07-29T03:50:21;17.50;99.90
22220;DHT22;11279;48.364;10.904;2022-07-29T03:51:22;17.50;99.90
22220;DHT22;11279;48.364;10.904;2022-07-29T03:52:23;17.50;99.90
22220;DHT22;11279;48.364;10.904;2022-07-29T03:53:23;17.50;99.90
22220;DHT22;11279;48.364;10.904;2022-07-29T03:54:24;17.50;99.90
22220;DHT22;11279;48.364;10.904;2022-07-29T03:55:26;17.50;99.90
22220;DHT22;11279;48.364;10.904;2022-07-29T03:56:29;17.40;99.90
22220;DHT22;11279;48.364;10.904;2022-07-29T03:57:32;17.50;99.90
22220;DHT22;11279;48.364;10.904;2022-07-29T03:58:33;17.40;99.90
22220;DHT22;11279;48.364;10.904;2022-07-29T03:59:35;17.40;99.90
22220;DHT22;11279;48.364;10.904;2022-07-29T04:00:36;17.40;99.90
22220;DHT22;11279;48.364;10.904;2022-07-29T04:01:38;17.50;99.90
22220;DHT22;11279;48.364;10.904;2022-07-29T04:02:40;17.40;99.90
22220;DHT22;11279;48.364;10.904;2022-07-29T04:03:40;17.40;99.90
22220;DHT22;11279;48.364;10.904;2022-07-29T04:04:41;17.40;99.90
22220;DHT22;11279;48.364;10.904;2022-07-29T04:05:42;17.40;99.90
22220;DHT22;11279;48.364;10.904;2022-07-29T04:06:44;17.40;99.90
22220;DHT22;11279;48.364;10.904;2022-07-29T04:07:46;17.40;99.90
22220;DHT22;11279;48.364;10.904;2022-07-29T04:08:47;17.40;99.90
22220;DHT22;11279;48.364;10.904;2022-07-29T04:09:48;17.40;99.90
22220;DHT22;11279;48.364;10.904;2022-07-29T04:10:48;17.40;99.90
22220;DHT22;11279;48.364;10.904;2022-07-29T04:11:50;17.40;99.90
22220;DHT22;11279;48.364;10.904;2022-07-29T04:12:51;17.40;99.90
22220;DHT22;11279;48.364;10.904;2022-07-29T04:13:52;17.30;99.90
22220;DHT22;11279;48.364;10.904;2022-07-29T04:14:53;17.30;99.90
22220;DHT22;11279;48.364;10.904;2022-07-29T04:15:54;17.30;99.90
22220;DHT22;11279;48.364;10.904;2022-07-29T04:16:54;17.30;99.90
22220;DHT22;11279;48.364;10.904;2022-07-29T04:17:55;17.30;99.90
22220;DHT22;11279;48.364;10.904;2022-07-29T04:18:56;17.30;99.90
22220;DHT22;11279;48.364;10.904;2022-07-29T04:19:56;17.30;99.90
22220;DHT22;11279;48.364;10.904;2022-07-29T04:20:57;17.30;99.90
22220;DHT22;11279;48.364;10.904;2022-07-29T04:22:01;17.40;99.90
22220;DHT22;11279;48.364;10.904;2022-07-29T04:23:02;17.40;99.90
22220;DHT22;11279;48.364;10.904;2022-07-29T04:24:02;17.40;99.90
22220;DHT22;11279;48.364;10.904;2022-07-29T04:25:03;17.40;99.90
22220;DHT22;11279;48.364;10.904;2022-07-29T04:26:04;17.40;99.90
22220;DHT22;11279;48.364;10.904;2022-07-29T04:27:05;17.50;99.90
22220;DHT22;11279;48.364;10.904;2022-07-29T04:28:06;17.40;99.90
22220;DHT22;11279;48.364;10.904;2022-07-29T04:29:07;17.40;99.90
22220;DHT22;11279;48.364;10.904;2022-07-29T04:30:08;17.40;99.90
22220;DHT22;11279;48.364;10.904;2022-07-29T04:31:10;17.40;99.90
22220;DHT22;11279;48.364;10.904;2022-07-29T04:32:10;17.30;99.90
22220;DHT22;11279;48.364;10.904;2022-07-29T04:33:11;17.30;99.90
22220;DHT22;11279;48.364;10.904;2022-07-29T04:34:12;17.40;99.90
22220;DHT22;11279;48.364;10.904;2022-07-29T04:35:13;17.40;99.90
22220;DHT22;11279;48.364;10.904;2022-07-29T04:36:13;17.40;99.90
22220;DHT22;11279;48.364;10.904;2022-07-29T04:37:14;17.40;99.90
22220;DHT22;11279;48.364;10.904;2022-07-29T04:38:15;17.40;99.90
22220;DHT22;11279;48.364;10.904;2022-07-29T04:39:15;17.40;99.90
22220;DHT22;11279;48.364;10.904;2022-07-29T04:40:18;17.40;99.90
22220;DHT22;11279;48.364;10.904;2022-07-29T04:41:19;17.50;99.90
22220;DHT22;11279;48.364;10.904;2022-07-29T04:42:20;17.50;99.90
22220;DHT22;11279;48.364;10.904;2022-07-29T04:43:20;17.60;99.90
22220;DHT22;11279;48.364;10.904;2022-07-29T04:44:21;17.50;99.90
22220;DHT22;11279;48.364;10.904;2022-07-29T04:45:22;17.50;99.90
22220;DHT22;11279;48.364;10.904;2022-07-29T04:46:23;17.50;99.90
22220;DHT22;11279;48.364;10.904;2022-07-29T04:47:23;17.60;99.90
22220;DHT22;11279;48.364;10.904;2022-07-29T04:48:24;17.60;99.90
22220;DHT22;11279;48.364;10.904;2022-07-29T04:49:25;17.70;99.90
22220;DHT22;11279;48.364;10.904;2022-07-29T04:50:25;17.70;99.90
22220;DHT22;11279;48.364;10.904;2022-07-29T04:51:26;17.70;99.90
22220;DHT22;11279;48.364;10.904;2022-07-29T04:52:27;17.70;99.90
22220;DHT22;11279;48.364;10.904;2022-07-29T04:53:28;17.70;99.90
22220;DHT22;11279;48.364;10.904;2022-07-29T04:54:29;17.70;99.90
22220;DHT22;11279;48.364;10.904;2022-07-29T04:55:29;17.70;99.90
22220;DHT22;11279;48.364;10.904;2022-07-29T04:56:30;17.70;99.90
22220;DHT22;11279;48.364;10.904;2022-07-29T04:57:31;17.80;99.90
22220;DHT22;11279;48.364;10.904;2022-07-29T04:58:34;17.80;99.90
22220;DHT22;11279;48.364;10.904;2022-07-29T04:59:35;17.80;99.90
22220;DHT22;11279;48.364;10.904;2022-07-29T05:00:36;17.80;99.90
22220;DHT22;11279;48.364;10.904;2022-07-29T05:01:36;17.80;99.90
22220;DHT22;11279;48.364;10.904;2022-07-29T05:02:37;17.80;99.90
22220;DHT22;11279;48.364;10.904;2022-07-29T05:03:38;17.90;99.90
22220;DHT22;11279;48.364;10.904;2022-07-29T05:04:38;17.90;99.90
22220;DHT22;11279;48.364;10.904;2022-07-29T05:05:39;18.00;99.90
22220;DHT22;11279;48.364;10.904;2022-07-29T05:06:41;18.00;99.90
22220;DHT22;11279;48.364;10.904;2022-07-29T05:07:41;18.00;99.90
22220;DHT22;11279;48.364;10.904;2022-07-29T05:08:42;18.00;99.90
22220;DHT22;11279;48.364;10.904;2022-07-29T05:09:43;18.10;99.90
22220;DHT22;11279;48.364;10.904;2022-07-29T05:10:43;18.10;99.90
22220;DHT22;11279;48.364;10.904;2022-07-29T05:11:44;18.20;99.90
22220;DHT22;11279;48.364;10.904;2022-07-29T05:12:45;18.20;99.90
22220;DHT22;11279;48.364;10.904;2022-07-29T05:13:45;18.30;99.90
22220;DHT22;11279;48.364;10.904;2022-07-29T05:14:46;18.40;99.90
22220;DHT22;11279;48.364;10.904;2022-07-29T05:15:46;18.40;99.90
22220;DHT22;11279;48.364;10.904;2022-07-29T05:16:47;18.50;99.90
22220;DHT22;11279;48.364;10.904;2022-07-29T05:17:51;18.50;99.90
22220;DHT22;11279;48.364;10.904;2022-07-29T05:18:52;18.50;99.90
22220;DHT22;11279;48.364;10.904;2022-07-29T05:19:52;18.50;99.90
22220;DHT22;11279;48.364;10.904;2022-07-29T05:20:53;18.50;99.90
22220;DHT22;11279;48.364;10.904;2022-07-29T05:21:54;18.50;99.90
22220;DHT22;11279;48.364;10.904;2022-07-29T05:22:56;18.60;99.90
22220;DHT22;11279;48.364;10.904;2022-07-29T05:23:57;18.70;99.90
22220;DHT22;11279;48.364;10.904;2022-07-29T05:24:58;19.10;99.90
22220;DHT22;11279;48.364;10.904;2022-07-29T05:25:59;19.30;99.90
22220;DHT22;11279;48.364;10.904;2022-07-29T05:26:59;19.70;99.90
22220;DHT22;11279;48.364;10.904;2022-07-29T05:28:00;20.20;99.90
22220;DHT22;11279;48.364;10.904;2022-07-29T05:29:01;20.70;99.90
22220;DHT22;11279;48.364;10.904;2022-07-29T05:30:02;21.00;99.90
22220;DHT22;11279;48.364;10.904;2022-07-29T05:31:03;21.40;99.90
22220;DHT22;11279;48.364;10.904;2022-07-29T05:32:04;21.70;99.90
22220;DHT22;11279;48.364;10.904;2022-07-29T05:33:04;21.70;99.90
22220;DHT22;11279;48.364;10.904;2022-07-29T05:34:05;21.70;99.90
22220;DHT22;11279;48.364;10.904;2022-07-29T05:35:06;21.90;99.90
22220;DHT22;11279;48.364;10.904;2022-07-29T05:36:07;22.00;99.90
22220;DHT22;11279;48.364;10.904;2022-07-29T05:37:08;22.20;99.90
22220;DHT22;11279;48.364;10.904;2022-07-29T05:38:09;22.00;99.90
22220;DHT22;11279;48.364;10.904;2022-07-29T05:39:10;22.10;99.90
22220;DHT22;11279;48.364;10.904;2022-07-29T05:40:11;22.10;99.90
22220;DHT22;11279;48.364;10.904;2022-07-29T05:41:12;22.00;99.90
22220;DHT22;11279;48.364;10.904;2022-07-29T05:42:12;21.90;99.90
22220;DHT22;11279;48.364;10.904;2022-07-29T05:43:13;21.80;99.90
22220;DHT22;11279;48.364;10.904;2022-07-29T05:44:13;21.60;99.90
22220;DHT22;11279;48.364;10.904;2022-07-29T05:45:14;21.60;99.90
22220;DHT22;11279;48.364;10.904;2022-07-29T05:46:15;21.50;99.90
22220;DHT22;11279;48.364;10.904;2022-07-29T05:47:16;21.50;99.90
22220;DHT22;11279;48.364;10.904;2022-07-29T05:48:17;21.40;99.90
22220;DHT22;11279;48.364;10.904;2022-07-29T05:49:17;21.30;99.90
22220;DHT22;11279;48.364;10.904;2022-07-29T05:50:18;21.40;99.90
22220;DHT22;11279;48.364;10.904;2022-07-29T05:51:19;21.50;99.90
22220;DHT22;11279;48.364;10.904;2022-07-29T05:52:20;21.50;99.90
22220;DHT22;11279;48.364;10.904;2022-07-29T05:53:21;21.20;99.90
22220;DHT22;11279;48.364;10.904;2022-07-29T05:54:22;20.90;99.90
22220;DHT22;11279;48.364;10.904;2022-07-29T05:55:23;20.90;99.90
22220;DHT22;11279;48.364;10.904;2022-07-29T05:56:24;20.90;99.90
22220;DHT22;11279;48.364;10.904;2022-07-29T05:57:25;20.80;99.90
22220;DHT22;11279;48.364;10.904;2022-07-29T05:58:26;20.80;99.90
22220;DHT22;11279;48.364;10.904;2022-07-29T05:59:28;20.80;99.90
22220;DHT22;11279;48.364;10.904;2022-07-29T06:00:29;20.80;99.90
22220;DHT22;11279;48.364;10.904;2022-07-29T06:01:30;20.70;99.90
22220;DHT22;11279;48.364;10.904;2022-07-29T06:02:31;20.60;99.90
22220;DHT22;11279;48.364;10.904;2022-07-29T06:03:32;20.70;99.90
22220;DHT22;11279;48.364;10.904;2022-07-29T06:04:33;20.70;99.90
22220;DHT22;11279;48.364;10.904;2022-07-29T06:05:34;20.60;99.90
22220;DHT22;11279;48.364;10.904;2022-07-29T06:06:35;20.70;99.90
22220;DHT22;11279;48.364;10.904;2022-07-29T06:07:35;20.80;99.90
22220;DHT22;11279;48.364;10.904;2022-07-29T06:08:36;20.70;99.90
22220;DHT22;11279;48.364;10.904;2022-07-29T06:09:37;20.60;99.90
22220;DHT22;11279;48.364;10.904;2022-07-29T06:10:38;20.60;99.90
22220;DHT22;11279;48.364;10.904;2022-07-29T06:11:39;20.50;99.90
22220;DHT22;11279;48.364;10.904;2022-07-29T06:12:39;20.50;99.90
22220;DHT22;11279;48.364;10.904;2022-07-29T06:13:40;20.50;99.90
22220;DHT22;11279;48.364;10.904;2022-07-29T06:14:41;20.40;99.90
22220;DHT22;11279;48.364;10.904;2022-07-29T06:15:42;20.30;99.90
22220;DHT22;11279;48.364;10.904;2022-07-29T06:16:43;20.40;99.90
22220;DHT22;11279;48.364;10.904;2022-07-29T06:17:43;20.40;99.90
22220;DHT22;11279;48.364;10.904;2022-07-29T06:18:44;20.40;99.90
22220;DHT22;11279;48.364;10.904;2022-07-29T06:19:45;20.50;99.90
22220;DHT22;11279;48.364;10.904;2022-07-29T06:20:45;20.40;99.90
22220;DHT22;11279;48.364;10.904;2022-07-29T06:21:46;20.40;99.90
22220;DHT22;11279;48.364;10.904;2022-07-29T06:22:48;20.40;99.90
22220;DHT22;11279;48.364;10.904;2022-07-29T06:23:48;20.50;99.90
22220;DHT22;11279;48.364;10.904;2022-07-29T06:24:49;20.60;99.90
22220;DHT22;11279;48.364;10.904;2022-07-29T06:25:50;20.70;99.90
22220;DHT22;11279;48.364;10.904;2022-07-29T06:26:51;20.70;99.90
22220;DHT22;11279;48.364;10.904;2022-07-29T06:27:52;20.70;99.90
22220;DHT22;11279;48.364;10.904;2022-07-29T06:28:52;20.80;99.90
22220;DHT22;11279;48.364;10.904;2022-07-29T06:29:53;21.00;99.90
22220;DHT22;11279;48.364;10.904;2022-07-29T06:30:54;21.20;99.90
22220;DHT22;11279;48.364;10.904;2022-07-29T06:31:55;21.30;99.90
22220;DHT22;11279;48.364;10.904;2022-07-29T06:32:56;21.60;99.90
22220;DHT22;11279;48.364;10.904;2022-07-29T06:33:56;22.00;99.90
22220;DHT22;11279;48.364;10.904;2022-07-29T06:34:57;22.60;99.90
22220;DHT22;11279;48.364;10.904;2022-07-29T06:35:58;23.00;99.90
22220;DHT22;11279;48.364;10.904;2022-07-29T06:36:58;23.40;99.90